Alameda, New Mexico
Current Conditions -  °F | °C
As of 1:55 AM on Saturday 25 Oct 2014 (Local Time) from KAEG Reporting Station
Clear Clear  
Wind Chill: 46°   Ceiling: Unl
Heat Index: 46°   Visibility: 10mi
Dew Point: 26°   Wind: 0mph
Humidity: 45%   Direction: NA
Pressure: 30.31"   Gusts: NA
Location:  35.1991°N, 106.662°W
Report Text: KAEG 250755Z AUTO 00000KT 10SM CLR 08/M03 A3031 RMK AO2 T00801032
Loading
Personal Weather Stations






























Interactive Weather Map
Tropical Storm Tracking
New forecast layout! Learn more

10-Day Weather Forecast

Advertisements
Track Severe Weather on mobile